sensor_id;sensor_type;location;lat;lon;timestamp;temperature;humidity
19945;DHT22;10134;50.952;6.930;2022-12-18T00:01:53;-3.30;99.90
19945;DHT22;10134;50.952;6.930;2022-12-18T00:04:24;-3.30;99.90
19945;DHT22;10134;50.952;6.930;2022-12-18T00:06:53;-3.30;99.90
19945;DHT22;10134;50.952;6.930;2022-12-18T00:09:20;-3.30;99.90
19945;DHT22;10134;50.952;6.930;2022-12-18T00:11:50;-3.30;99.90
19945;DHT22;10134;50.952;6.930;2022-12-18T00:14:18;-3.30;99.90
19945;DHT22;10134;50.952;6.930;2022-12-18T00:16:46;-3.30;99.90
19945;DHT22;10134;50.952;6.930;2022-12-18T00:19:14;-3.30;99.90
19945;DHT22;10134;50.952;6.930;2022-12-18T00:21:43;-3.40;99.90
19945;DHT22;10134;50.952;6.930;2022-12-18T00:24:10;-3.40;99.90
19945;DHT22;10134;50.952;6.930;2022-12-18T00:26:39;-3.40;99.90
19945;DHT22;10134;50.952;6.930;2022-12-18T00:29:10;-3.40;99.90
19945;DHT22;10134;50.952;6.930;2022-12-18T00:31:38;-3.40;99.90
19945;DHT22;10134;50.952;6.930;2022-12-18T00:34:06;-3.40;99.90
19945;DHT22;10134;50.952;6.930;2022-12-18T00:36:34;-3.40;99.90
19945;DHT22;10134;50.952;6.930;2022-12-18T00:39:04;-3.40;99.90
19945;DHT22;10134;50.952;6.930;2022-12-18T00:41:32;-3.40;99.90
19945;DHT22;10134;50.952;6.930;2022-12-18T00:44:19;-3.40;99.90
19945;DHT22;10134;50.952;6.930;2022-12-18T00:46:47;-3.40;99.90
19945;DHT22;10134;50.952;6.930;2022-12-18T00:49:17;-3.40;99.90
19945;DHT22;10134;50.952;6.930;2022-12-18T00:51:46;-3.50;99.90
19945;DHT22;10134;50.952;6.930;2022-12-18T00:54:14;-3.50;99.90
19945;DHT22;10134;50.952;6.930;2022-12-18T00:56:41;-3.50;99.90
19945;DHT22;10134;50.952;6.930;2022-12-18T00:59:18;-3.50;99.90
19945;DHT22;10134;50.952;6.930;2022-12-18T01:01:46;-3.40;99.90
19945;DHT22;10134;50.952;6.930;2022-12-18T01:04:15;-3.40;99.90
19945;DHT22;10134;50.952;6.930;2022-12-18T01:06:45;-3.50;99.90
19945;DHT22;10134;50.952;6.930;2022-12-18T01:09:12;-3.50;99.90
19945;DHT22;10134;50.952;6.930;2022-12-18T01:11:40;-3.40;99.90
19945;DHT22;10134;50.952;6.930;2022-12-18T01:14:07;-3.40;99.90
19945;DHT22;10134;50.952;6.930;2022-12-18T01:16:37;-3.40;99.90
19945;DHT22;10134;50.952;6.930;2022-12-18T01:19:04;-3.40;99.90
19945;DHT22;10134;50.952;6.930;2022-12-18T01:21:32;-3.40;99.90
19945;DHT22;10134;50.952;6.930;2022-12-18T01:24:03;-3.40;99.90
19945;DHT22;10134;50.952;6.930;2022-12-18T01:26:31;-3.40;99.90
19945;DHT22;10134;50.952;6.930;2022-12-18T01:28:58;-3.40;99.90
19945;DHT22;10134;50.952;6.930;2022-12-18T01:31:28;-3.40;99.90
19945;DHT22;10134;50.952;6.930;2022-12-18T01:33:56;-3.40;99.90
19945;DHT22;10134;50.952;6.930;2022-12-18T01:36:29;-3.40;99.90
19945;DHT22;10134;50.952;6.930;2022-12-18T01:38:59;-3.40;99.90
19945;DHT22;10134;50.952;6.930;2022-12-18T01:41:29;-3.40;99.90
19945;DHT22;10134;50.952;6.930;2022-12-18T01:50:10;-3.50;99.90
19945;DHT22;10134;50.952;6.930;2022-12-18T01:52:38;-3.50;99.90
19945;DHT22;10134;50.952;6.930;2022-12-18T01:55:08;-3.50;99.90
19945;DHT22;10134;50.952;6.930;2022-12-18T01:57:37;-3.50;99.90
19945;DHT22;10134;50.952;6.930;2022-12-18T02:00:10;-3.50;99.90
19945;DHT22;10134;50.952;6.930;2022-12-18T02:02:42;-3.50;99.90
19945;DHT22;10134;50.952;6.930;2022-12-18T02:08:24;-3.50;99.90
19945;DHT22;10134;50.952;6.930;2022-12-18T02:11:49;-3.50;99.90
19945;DHT22;10134;50.952;6.930;2022-12-18T02:13:56;-3.50;99.90
19945;DHT22;10134;50.952;6.930;2022-12-18T02:19:47;-3.50;99.90
19945;DHT22;10134;50.952;6.930;2022-12-18T02:25:25;-3.50;99.90
19945;DHT22;10134;50.952;6.930;2022-12-18T02:27:56;-3.50;99.90
19945;DHT22;10134;50.952;6.930;2022-12-18T02:30:30;-3.50;99.90
19945;DHT22;10134;50.952;6.930;2022-12-18T02:33:00;-3.50;99.90
19945;DHT22;10134;50.952;6.930;2022-12-18T02:35:30;-3.50;99.90
19945;DHT22;10134;50.952;6.930;2022-12-18T02:38:00;-3.50;99.90
19945;DHT22;10134;50.952;6.930;2022-12-18T02:40:30;-3.50;99.90
19945;DHT22;10134;50.952;6.930;2022-12-18T02:43:10;-3.50;99.90
19945;DHT22;10134;50.952;6.930;2022-12-18T02:45:48;-3.50;99.90
19945;DHT22;10134;50.952;6.930;2022-12-18T02:48:19;-3.50;99.90
19945;DHT22;10134;50.952;6.930;2022-12-18T02:51:24;-3.50;99.90
19945;DHT22;10134;50.952;6.930;2022-12-18T02:54:12;-3.50;99.90
19945;DHT22;10134;50.952;6.930;2022-12-18T02:56:52;-3.50;99.90
19945;DHT22;10134;50.952;6.930;2022-12-18T02:59:29;-3.50;99.90
19945;DHT22;10134;50.952;6.930;2022-12-18T03:05:13;-3.50;99.90
19945;DHT22;10134;50.952;6.930;2022-12-18T03:07:50;-3.50;99.90
19945;DHT22;10134;50.952;6.930;2022-12-18T03:10:25;-3.50;99.90
19945;DHT22;10134;50.952;6.930;2022-12-18T03:13:06;-3.50;99.90
19945;DHT22;10134;50.952;6.930;2022-12-18T03:15:44;-3.50;99.90
19945;DHT22;10134;50.952;6.930;2022-12-18T03:18:18;-3.50;99.90
19945;DHT22;10134;50.952;6.930;2022-12-18T03:20:49;-3.50;99.90
19945;DHT22;10134;50.952;6.930;2022-12-18T03:23:27;-3.50;99.90
19945;DHT22;10134;50.952;6.930;2022-12-18T03:26:02;-3.50;99.90
19945;DHT22;10134;50.952;6.930;2022-12-18T03:28:42;-3.50;99.90
19945;DHT22;10134;50.952;6.930;2022-12-18T03:31:12;-3.50;99.90
19945;DHT22;10134;50.952;6.930;2022-12-18T03:33:55;-3.50;99.90
19945;DHT22;10134;50.952;6.930;2022-12-18T03:36:30;-3.50;99.90
19945;DHT22;10134;50.952;6.930;2022-12-18T03:38:57;-3.50;99.90
19945;DHT22;10134;50.952;6.930;2022-12-18T03:41:31;-3.50;99.90
19945;DHT22;10134;50.952;6.930;2022-12-18T03:44:55;-3.50;99.90
19945;DHT22;10134;50.952;6.930;2022-12-18T03:47:43;-3.50;99.90
19945;DHT22;10134;50.952;6.930;2022-12-18T03:53:06;-3.50;99.90
19945;DHT22;10134;50.952;6.930;2022-12-18T03:55:36;-3.50;99.90
19945;DHT22;10134;50.952;6.930;2022-12-18T03:58:07;-3.50;99.90
19945;DHT22;10134;50.952;6.930;2022-12-18T04:00:49;-3.60;99.90
19945;DHT22;10134;50.952;6.930;2022-12-18T04:03:20;-3.50;99.90
19945;DHT22;10134;50.952;6.930;2022-12-18T04:05:54;-3.50;99.90
19945;DHT22;10134;50.952;6.930;2022-12-18T04:08:22;-3.60;99.90
19945;DHT22;10134;50.952;6.930;2022-12-18T04:10:59;-3.60;99.90
19945;DHT22;10134;50.952;6.930;2022-12-18T04:13:34;-3.60;99.90
19945;DHT22;10134;50.952;6.930;2022-12-18T04:16:05;-3.50;99.90
19945;DHT22;10134;50.952;6.930;2022-12-18T04:18:34;-3.60;99.90
19945;DHT22;10134;50.952;6.930;2022-12-18T04:21:02;-3.60;99.90
19945;DHT22;10134;50.952;6.930;2022-12-18T04:23:29;-3.50;99.90
19945;DHT22;10134;50.952;6.930;2022-12-18T04:25:58;-3.60;99.90
19945;DHT22;10134;50.952;6.930;2022-12-18T04:28:44;-3.50;99.90
19945;DHT22;10134;50.952;6.930;2022-12-18T04:31:12;-3.60;99.90
19945;DHT22;10134;50.952;6.930;2022-12-18T04:33:40;-3.60;99.90
19945;DHT22;10134;50.952;6.930;2022-12-18T04:36:09;-3.60;99.90
19945;DHT22;10134;50.952;6.930;2022-12-18T04:38:36;-3.50;99.90
19945;DHT22;10134;50.952;6.930;2022-12-18T04:41:08;-3.60;99.90
19945;DHT22;10134;50.952;6.930;2022-12-18T04:43:36;-3.60;99.90
19945;DHT22;10134;50.952;6.930;2022-12-18T04:46:04;-3.60;99.90
19945;DHT22;10134;50.952;6.930;2022-12-18T04:48:32;-3.60;99.90
19945;DHT22;10134;50.952;6.930;2022-12-18T04:51:02;-3.60;99.90
19945;DHT22;10134;50.952;6.930;2022-12-18T04:53:30;-3.60;99.90
19945;DHT22;10134;50.952;6.930;2022-12-18T04:56:12;-3.60;99.90
19945;DHT22;10134;50.952;6.930;2022-12-18T04:58:41;-3.60;99.90
19945;DHT22;10134;50.952;6.930;2022-12-18T05:01:09;-3.70;99.90
19945;DHT22;10134;50.952;6.930;2022-12-18T05:03:37;-3.70;99.90
19945;DHT22;10134;50.952;6.930;2022-12-18T05:06:06;-3.70;99.90
19945;DHT22;10134;50.952;6.930;2022-12-18T05:08:34;-3.70;99.90
19945;DHT22;10134;50.952;6.930;2022-12-18T05:11:04;-3.70;99.90
19945;DHT22;10134;50.952;6.930;2022-12-18T05:13:32;-3.70;99.90
19945;DHT22;10134;50.952;6.930;2022-12-18T05:15:59;-3.70;99.90
19945;DHT22;10134;50.952;6.930;2022-12-18T05:18:27;-3.70;99.90
19945;DHT22;10134;50.952;6.930;2022-12-18T05:20:55;-3.70;99.90
19945;DHT22;10134;50.952;6.930;2022-12-18T05:23:23;-3.70;99.90
19945;DHT22;10134;50.952;6.930;2022-12-18T05:28:20;-3.70;99.90
19945;DHT22;10134;50.952;6.930;2022-12-18T05:30:49;-3.70;99.90
19945;DHT22;10134;50.952;6.930;2022-12-18T05:33:17;-3.70;99.90
19945;DHT22;10134;50.952;6.930;2022-12-18T05:35:50;-3.70;99.90
19945;DHT22;10134;50.952;6.930;2022-12-18T05:38:19;-3.70;99.90
19945;DHT22;10134;50.952;6.930;2022-12-18T05:40:50;-3.70;99.90
19945;DHT22;10134;50.952;6.930;2022-12-18T05:43:18;-3.70;99.90
19945;DHT22;10134;50.952;6.930;2022-12-18T05:45:48;-3.70;99.90
19945;DHT22;10134;50.952;6.930;2022-12-18T05:48:16;-3.70;99.90
19945;DHT22;10134;50.952;6.930;2022-12-18T05:50:45;-3.70;99.90
19945;DHT22;10134;50.952;6.930;2022-12-18T05:53:15;-3.70;99.90
19945;DHT22;10134;50.952;6.930;2022-12-18T05:55:44;-3.70;99.90
19945;DHT22;10134;50.952;6.930;2022-12-18T05:58:12;-3.70;99.90
19945;DHT22;10134;50.952;6.930;2022-12-18T06:00:41;-3.70;99.90
19945;DHT22;10134;50.952;6.930;2022-12-18T06:03:10;-3.70;99.90
19945;DHT22;10134;50.952;6.930;2022-12-18T06:05:40;-3.70;99.90
19945;DHT22;10134;50.952;6.930;2022-12-18T06:08:08;-3.70;99.90
19945;DHT22;10134;50.952;6.930;2022-12-18T06:10:36;-3.60;99.90
19945;DHT22;10134;50.952;6.930;2022-12-18T06:13:03;-3.60;99.90
19945;DHT22;10134;50.952;6.930;2022-12-18T06:15:31;-3.70;99.90
19945;DHT22;10134;50.952;6.930;2022-12-18T06:18:00;-3.70;99.90
19945;DHT22;10134;50.952;6.930;2022-12-18T06:20:27;-3.60;99.90
19945;DHT22;10134;50.952;6.930;2022-12-18T06:22:59;-3.60;99.90
19945;DHT22;10134;50.952;6.930;2022-12-18T06:25:27;-3.60;99.90
19945;DHT22;10134;50.952;6.930;2022-12-18T06:27:54;-3.60;99.90
19945;DHT22;10134;50.952;6.930;2022-12-18T06:30:22;-3.60;99.90
19945;DHT22;10134;50.952;6.930;2022-12-18T06:32:49;-3.60;99.90
19945;DHT22;10134;50.952;6.930;2022-12-18T06:35:23;-3.60;99.90
19945;DHT22;10134;50.952;6.930;2022-12-18T06:37:51;-3.60;99.90
19945;DHT22;10134;50.952;6.930;2022-12-18T06:40:18;-3.60;99.90
19945;DHT22;10134;50.952;6.930;2022-12-18T06:42:45;-3.60;99.90
19945;DHT22;10134;50.952;6.930;2022-12-18T06:45:13;-3.60;99.90
19945;DHT22;10134;50.952;6.930;2022-12-18T06:47:43;-3.60;99.90
19945;DHT22;10134;50.952;6.930;2022-12-18T06:50:11;-3.60;99.90
19945;DHT22;10134;50.952;6.930;2022-12-18T06:52:39;-3.60;99.90
19945;DHT22;10134;50.952;6.930;2022-12-18T06:55:07;-3.60;99.90
19945;DHT22;10134;50.952;6.930;2022-12-18T06:57:36;-3.60;99.90
19945;DHT22;10134;50.952;6.930;2022-12-18T07:00:05;-3.70;99.90
19945;DHT22;10134;50.952;6.930;2022-12-18T07:02:33;-3.70;99.90
19945;DHT22;10134;50.952;6.930;2022-12-18T07:05:01;-3.70;99.90
19945;DHT22;10134;50.952;6.930;2022-12-18T07:07:36;-3.70;99.90
19945;DHT22;10134;50.952;6.930;2022-12-18T07:10:04;-3.70;99.90
19945;DHT22;10134;50.952;6.930;2022-12-18T07:12:31;-3.70;99.90
19945;DHT22;10134;50.952;6.930;2022-12-18T07:14:59;-3.70;99.90
19945;DHT22;10134;50.952;6.930;2022-12-18T07:17:26;-3.80;99.90
19945;DHT22;10134;50.952;6.930;2022-12-18T07:19:53;-3.80;99.90
19945;DHT22;10134;50.952;6.930;2022-12-18T07:22:21;-3.80;99.90
19945;DHT22;10134;50.952;6.930;2022-12-18T07:24:48;-3.80;99.90
19945;DHT22;10134;50.952;6.930;2022-12-18T07:27:16;-3.70;99.90
19945;DHT22;10134;50.952;6.930;2022-12-18T07:29:44;-3.80;99.90
19945;DHT22;10134;50.952;6.930;2022-12-18T07:32:11;-3.80;99.90
19945;DHT22;10134;50.952;6.930;2022-12-18T07:34:39;-3.80;99.90
19945;DHT22;10134;50.952;6.930;2022-12-18T07:37:06;-3.80;99.90
19945;DHT22;10134;50.952;6.930;2022-12-18T07:39:59;-3.80;99.90
19945;DHT22;10134;50.952;6.930;2022-12-18T07:42:26;-3.80;99.90
19945;DHT22;10134;50.952;6.930;2022-12-18T07:45:00;-3.80;99.90
19945;DHT22;10134;50.952;6.930;2022-12-18T07:47:28;-3.80;99.90
19945;DHT22;10134;50.952;6.930;2022-12-18T07:49:58;-3.80;99.90
19945;DHT22;10134;50.952;6.930;2022-12-18T07:52:25;-3.80;99.90
19945;DHT22;10134;50.952;6.930;2022-12-18T07:54:53;-3.80;99.90
19945;DHT22;10134;50.952;6.930;2022-12-18T07:57:20;-3.80;99.90
19945;DHT22;10134;50.952;6.930;2022-12-18T08:00:08;-3.80;99.90
19945;DHT22;10134;50.952;6.930;2022-12-18T08:02:39;-3.80;99.90
19945;DHT22;10134;50.952;6.930;2022-12-18T08:05:08;-3.70;99.90
19945;DHT22;10134;50.952;6.930;2022-12-18T08:07:35;-3.80;99.90
19945;DHT22;10134;50.952;6.930;2022-12-18T08:10:03;-3.70;99.90
19945;DHT22;10134;50.952;6.930;2022-12-18T08:12:32;-3.70;99.90
19945;DHT22;10134;50.952;6.930;2022-12-18T08:14:59;-3.70;99.90
19945;DHT22;10134;50.952;6.930;2022-12-18T08:17:27;-3.70;99.90
19945;DHT22;10134;50.952;6.930;2022-12-18T08:19:54;-3.60;99.90
19945;DHT22;10134;50.952;6.930;2022-12-18T08:22:21;-3.60;99.90
19945;DHT22;10134;50.952;6.930;2022-12-18T08:24:48;-3.50;99.90
19945;DHT22;10134;50.952;6.930;2022-12-18T08:27:16;-3.50;99.90
19945;DHT22;10134;50.952;6.930;2022-12-18T08:29:59;-3.50;99.90
19945;DHT22;10134;50.952;6.930;2022-12-18T08:32:27;-3.40;99.90
19945;DHT22;10134;50.952;6.930;2022-12-18T08:34:55;-3.40;99.90
19945;DHT22;10134;50.952;6.930;2022-12-18T08:37:22;-3.30;99.90
19945;DHT22;10134;50.952;6.930;2022-12-18T08:39:49;-3.30;99.90
19945;DHT22;10134;50.952;6.930;2022-12-18T08:42:17;-3.20;99.90
19945;DHT22;10134;50.952;6.930;2022-12-18T08:45:03;-3.20;99.90
19945;DHT22;10134;50.952;6.930;2022-12-18T08:47:31;-3.10;99.90
19945;DHT22;10134;50.952;6.930;2022-12-18T08:49:58;-3.10;99.90
19945;DHT22;10134;50.952;6.930;2022-12-18T08:52:26;-3.10;99.90
19945;DHT22;10134;50.952;6.930;2022-12-18T08:54:53;-3.00;99.90
19945;DHT22;10134;50.952;6.930;2022-12-18T08:57:20;-2.90;99.90
19945;DHT22;10134;50.952;6.930;2022-12-18T08:59:48;-2.90;99.90
19945;DHT22;10134;50.952;6.930;2022-12-18T09:02:15;-2.80;99.90
19945;DHT22;10134;50.952;6.930;2022-12-18T09:04:43;-2.80;99.90
19945;DHT22;10134;50.952;6.930;2022-12-18T09:07:13;-2.70;99.90
19945;DHT22;10134;50.952;6.930;2022-12-18T09:09:40;-2.70;99.90
19945;DHT22;10134;50.952;6.930;2022-12-18T09:12:07;-2.60;99.90
19945;DHT22;10134;50.952;6.930;2022-12-18T09:14:35;-2.60;99.90
19945;DHT22;10134;50.952;6.930;2022-12-18T09:17:02;-2.50;99.90
19945;DHT22;10134;50.952;6.930;2022-12-18T09:19:30;-2.50;99.90
19945;DHT22;10134;50.952;6.930;2022-12-18T09:21:57;-2.40;99.90
19945;DHT22;10134;50.952;6.930;2022-12-18T09:24:25;-2.40;99.90
19945;DHT22;10134;50.952;6.930;2022-12-18T09:26:55;-2.40;99.90
19945;DHT22;10134;50.952;6.930;2022-12-18T09:29:24;-2.30;99.90
19945;DHT22;10134;50.952;6.930;2022-12-18T09:31:51;-2.20;99.90
19945;DHT22;10134;50.952;6.930;2022-12-18T09:34:18;-2.20;99.90
19945;DHT22;10134;50.952;6.930;2022-12-18T09:36:48;-2.10;99.90
19945;DHT22;10134;50.952;6.930;2022-12-18T09:39:16;-2.00;99.90
19945;DHT22;10134;50.952;6.930;2022-12-18T09:41:51;-2.00;99.90
19945;DHT22;10134;50.952;6.930;2022-12-18T09:44:36;-1.90;99.90
19945;DHT22;10134;50.952;6.930;2022-12-18T09:50:04;-1.80;99.90
19945;DHT22;10134;50.952;6.930;2022-12-18T09:52:45;-1.70;99.90
19945;DHT22;10134;50.952;6.930;2022-12-18T09:57:49;-1.60;99.90
19945;DHT22;10134;50.952;6.930;2022-12-18T10:00:21;-1.50;99.90
19945;DHT22;10134;50.952;6.930;2022-12-18T10:02:50;-1.40;99.90
19945;DHT22;10134;50.952;6.930;2022-12-18T10:05:32;-1.40;99.90
19945;DHT22;10134;50.952;6.930;2022-12-18T10:14:45;-1.20;99.90
19945;DHT22;10134;50.952;6.930;2022-12-18T10:19:39;-1.10;99.90
19945;DHT22;10134;50.952;6.930;2022-12-18T10:25:05;-1.00;99.90
19945;DHT22;10134;50.952;6.930;2022-12-18T10:27:37;-0.90;99.90
19945;DHT22;10134;50.952;6.930;2022-12-18T10:30:13;-0.90;99.90
19945;DHT22;10134;50.952;6.930;2022-12-18T10:32:41;-0.80;99.90
19945;DHT22;10134;50.952;6.930;2022-12-18T10:35:27;-0.80;99.90
19945;DHT22;10134;50.952;6.930;2022-12-18T10:38:05;-0.70;99.90
19945;DHT22;10134;50.952;6.930;2022-12-18T10:40:36;-0.60;99.90
19945;DHT22;10134;50.952;6.930;2022-12-18T10:43:15;-0.60;99.90
19945;DHT22;10134;50.952;6.930;2022-12-18T10:48:30;-0.50;99.90
19945;DHT22;10134;50.952;6.930;2022-12-18T10:50:58;-0.40;99.90
19945;DHT22;10134;50.952;6.930;2022-12-18T10:53:41;-0.40;99.90
19945;DHT22;10134;50.952;6.930;2022-12-18T10:56:09;-0.30;99.90
19945;DHT22;10134;50.952;6.930;2022-12-18T10:58:38;-0.30;99.90
19945;DHT22;10134;50.952;6.930;2022-12-18T11:03:40;-0.20;99.90
19945;DHT22;10134;50.952;6.930;2022-12-18T11:06:19;-0.20;99.90
19945;DHT22;10134;50.952;6.930;2022-12-18T11:09:06;-0.10;99.90
19945;DHT22;10134;50.952;6.930;2022-12-18T11:11:53;-0.10;99.90
19945;DHT22;10134;50.952;6.930;2022-12-18T11:14:24;0.00;99.90
19945;DHT22;10134;50.952;6.930;2022-12-18T11:16:52;0.00;99.90
19945;DHT22;10134;50.952;6.930;2022-12-18T11:19:41;0.00;99.90
19945;DHT22;10134;50.952;6.930;2022-12-18T11:22:29;0.00;99.90
19945;DHT22;10134;50.952;6.930;2022-12-18T11:25:19;0.10;99.90
19945;DHT22;10134;50.952;6.930;2022-12-18T11:31:17;0.10;99.90
19945;DHT22;10134;50.952;6.930;2022-12-18T11:36:58;0.10;99.90
19945;DHT22;10134;50.952;6.930;2022-12-18T11:39:51;0.20;99.90
19945;DHT22;10134;50.952;6.930;2022-12-18T11:45:27;0.20;99.90
19945;DHT22;10134;50.952;6.930;2022-12-18T11:48:24;0.20;99.90
19945;DHT22;10134;50.952;6.930;2022-12-18T11:50:55;0.30;99.90
19945;DHT22;10134;50.952;6.930;2022-12-18T11:53:24;0.30;99.90
19945;DHT22;10134;50.952;6.930;2022-12-18T11:56:33;0.40;99.90
19945;DHT22;10134;50.952;6.930;2022-12-18T11:59:08;0.40;99.90
19945;DHT22;10134;50.952;6.930;2022-12-18T12:10:14;0.40;99.90
19945;DHT22;10134;50.952;6.930;2022-12-18T12:15:45;0.30;99.90
19945;DHT22;10134;50.952;6.930;2022-12-18T12:18:33;0.30;99.90
19945;DHT22;10134;50.952;6.930;2022-12-18T12:21:15;0.30;99.90
19945;DHT22;10134;50.952;6.930;2022-12-18T12:24:15;0.30;99.90
19945;DHT22;10134;50.952;6.930;2022-12-18T12:26:48;0.30;99.90
19945;DHT22;10134;50.952;6.930;2022-12-18T12:29:37;0.30;99.90
19945;DHT22;10134;50.952;6.930;2022-12-18T12:35:21;0.40;99.90
19945;DHT22;10134;50.952;6.930;2022-12-18T12:38:17;0.40;99.90
19945;DHT22;10134;50.952;6.930;2022-12-18T12:40:59;0.40;99.90
19945;DHT22;10134;50.952;6.930;2022-12-18T12:43:38;0.40;99.90
19945;DHT22;10134;50.952;6.930;2022-12-18T12:46:18;0.40;99.90
19945;DHT22;10134;50.952;6.930;2022-12-18T12:48:54;0.40;99.90
19945;DHT22;10134;50.952;6.930;2022-12-18T12:51:33;0.50;99.90
19945;DHT22;10134;50.952;6.930;2022-12-18T12:54:06;0.50;99.90
19945;DHT22;10134;50.952;6.930;2022-12-18T13:02:50;0.50;99.90
19945;DHT22;10134;50.952;6.930;2022-12-18T13:08:06;0.50;99.90
19945;DHT22;10134;50.952;6.930;2022-12-18T13:10:39;0.50;99.90
19945;DHT22;10134;50.952;6.930;2022-12-18T13:13:12;0.50;99.90
19945;DHT22;10134;50.952;6.930;2022-12-18T13:16:05;0.60;99.90
19945;DHT22;10134;50.952;6.930;2022-12-18T13:18:34;0.60;99.90
19945;DHT22;10134;50.952;6.930;2022-12-18T13:23:56;0.60;99.90
19945;DHT22;10134;50.952;6.930;2022-12-18T13:26:28;0.60;99.90
19945;DHT22;10134;50.952;6.930;2022-12-18T13:29:00;0.60;99.90
19945;DHT22;10134;50.952;6.930;2022-12-18T13:34:22;0.60;99.90
19945;DHT22;10134;50.952;6.930;2022-12-18T13:36:55;0.50;99.90
19945;DHT22;10134;50.952;6.930;2022-12-18T13:39:30;0.50;99.90
19945;DHT22;10134;50.952;6.930;2022-12-18T13:44:35;0.50;99.90
19945;DHT22;10134;50.952;6.930;2022-12-18T13:47:32;0.50;99.90
19945;DHT22;10134;50.952;6.930;2022-12-18T13:50:03;0.50;99.90
19945;DHT22;10134;50.952;6.930;2022-12-18T13:52:39;0.50;99.90
19945;DHT22;10134;50.952;6.930;2022-12-18T13:55:14;0.50;99.90
19945;DHT22;10134;50.952;6.930;2022-12-18T13:57:43;0.50;99.90
19945;DHT22;10134;50.952;6.930;2022-12-18T14:00:24;0.50;99.90
19945;DHT22;10134;50.952;6.930;2022-12-18T14:02:52;0.50;99.90
19945;DHT22;10134;50.952;6.930;2022-12-18T14:05:27;0.50;99.90
19945;DHT22;10134;50.952;6.930;2022-12-18T14:07:55;0.40;99.90
19945;DHT22;10134;50.952;6.930;2022-12-18T14:10:26;0.40;99.90
19945;DHT22;10134;50.952;6.930;2022-12-18T14:13:37;0.40;99.90
19945;DHT22;10134;50.952;6.930;2022-12-18T14:16:07;0.40;99.90
19945;DHT22;10134;50.952;6.930;2022-12-18T14:18:39;0.40;99.90
19945;DHT22;10134;50.952;6.930;2022-12-18T14:21:22;0.40;99.90
19945;DHT22;10134;50.952;6.930;2022-12-18T14:24:13;0.40;99.90
19945;DHT22;10134;50.952;6.930;2022-12-18T14:26:46;0.40;99.90
19945;DHT22;10134;50.952;6.930;2022-12-18T14:29:26;0.30;99.90
19945;DHT22;10134;50.952;6.930;2022-12-18T14:32:16;0.30;99.90
19945;DHT22;10134;50.952;6.930;2022-12-18T14:34:52;0.30;99.90
19945;DHT22;10134;50.952;6.930;2022-12-18T14:37:24;0.30;99.90
19945;DHT22;10134;50.952;6.930;2022-12-18T14:40:03;0.20;99.90
19945;DHT22;10134;50.952;6.930;2022-12-18T14:42:37;0.20;99.90
19945;DHT22;10134;50.952;6.930;2022-12-18T14:45:33;0.20;99.90
19945;DHT22;10134;50.952;6.930;2022-12-18T14:50:40;0.20;99.90
19945;DHT22;10134;50.952;6.930;2022-12-18T14:53:35;0.10;99.90
19945;DHT22;10134;50.952;6.930;2022-12-18T14:56:15;0.10;99.90
19945;DHT22;10134;50.952;6.930;2022-12-18T14:58:53;0.10;99.90
19945;DHT22;10134;50.952;6.930;2022-12-18T15:01:30;0.10;99.90
19945;DHT22;10134;50.952;6.930;2022-12-18T15:03:59;0.10;99.90
19945;DHT22;10134;50.952;6.930;2022-12-18T15:08:57;0.00;99.90
19945;DHT22;10134;50.952;6.930;2022-12-18T15:11:45;0.00;99.90
19945;DHT22;10134;50.952;6.930;2022-12-18T15:14:42;0.00;99.90
19945;DHT22;10134;50.952;6.930;2022-12-18T15:17:23;0.00;99.90
19945;DHT22;10134;50.952;6.930;2022-12-18T15:20:02;-0.10;99.90
19945;DHT22;10134;50.952;6.930;2022-12-18T15:22:36;-0.10;99.90
19945;DHT22;10134;50.952;6.930;2022-12-18T15:27:51;-0.10;99.90
19945;DHT22;10134;50.952;6.930;2022-12-18T15:30:23;-0.10;99.90
19945;DHT22;10134;50.952;6.930;2022-12-18T15:32:51;-0.10;99.90
19945;DHT22;10134;50.952;6.930;2022-12-18T15:35:20;-0.20;99.90
19945;DHT22;10134;50.952;6.930;2022-12-18T15:37:49;-0.20;99.90
19945;DHT22;10134;50.952;6.930;2022-12-18T15:40:20;-0.20;99.90
19945;DHT22;10134;50.952;6.930;2022-12-18T15:42:48;-0.20;99.90
19945;DHT22;10134;50.952;6.930;2022-12-18T15:45:36;-0.20;99.90
19945;DHT22;10134;50.952;6.930;2022-12-18T15:48:21;-0.30;99.90
19945;DHT22;10134;50.952;6.930;2022-12-18T15:50:54;-0.30;99.90
19945;DHT22;10134;50.952;6.930;2022-12-18T15:53:25;-0.30;99.90
19945;DHT22;10134;50.952;6.930;2022-12-18T15:55:53;-0.30;99.90
19945;DHT22;10134;50.952;6.930;2022-12-18T15:58:39;-0.40;99.90
19945;DHT22;10134;50.952;6.930;2022-12-18T16:01:08;-0.40;99.90
19945;DHT22;10134;50.952;6.930;2022-12-18T16:03:36;-0.40;99.90
19945;DHT22;10134;50.952;6.930;2022-12-18T16:06:03;-0.40;99.90
19945;DHT22;10134;50.952;6.930;2022-12-18T16:08:31;-0.40;99.90
19945;DHT22;10134;50.952;6.930;2022-12-18T16:10:59;-0.40;99.90
19945;DHT22;10134;50.952;6.930;2022-12-18T16:13:27;-0.50;99.90
19945;DHT22;10134;50.952;6.930;2022-12-18T16:15:54;-0.50;99.90
19945;DHT22;10134;50.952;6.930;2022-12-18T16:18:21;-0.50;99.90
19945;DHT22;10134;50.952;6.930;2022-12-18T16:20:49;-0.50;99.90
19945;DHT22;10134;50.952;6.930;2022-12-18T16:23:16;-0.50;99.90
19945;DHT22;10134;50.952;6.930;2022-12-18T16:25:43;-0.60;99.90
19945;DHT22;10134;50.952;6.930;2022-12-18T16:28:10;-0.50;99.90
19945;DHT22;10134;50.952;6.930;2022-12-18T16:30:38;-0.50;99.90
19945;DHT22;10134;50.952;6.930;2022-12-18T16:33:05;-0.50;99.90
19945;DHT22;10134;50.952;6.930;2022-12-18T16:35:34;-0.50;99.90
19945;DHT22;10134;50.952;6.930;2022-12-18T16:38:04;-0.50;99.90
19945;DHT22;10134;50.952;6.930;2022-12-18T16:40:32;-0.50;99.90
19945;DHT22;10134;50.952;6.930;2022-12-18T16:42:59;-0.50;99.90
19945;DHT22;10134;50.952;6.930;2022-12-18T16:45:26;-0.50;99.90
19945;DHT22;10134;50.952;6.930;2022-12-18T16:47:59;-0.50;99.90
19945;DHT22;10134;50.952;6.930;2022-12-18T16:50:27;-0.50;99.90
19945;DHT22;10134;50.952;6.930;2022-12-18T16:52:54;-0.50;99.90
19945;DHT22;10134;50.952;6.930;2022-12-18T16:55:21;-0.50;99.90
19945;DHT22;10134;50.952;6.930;2022-12-18T16:57:48;-0.50;99.90
19945;DHT22;10134;50.952;6.930;2022-12-18T17:00:16;-0.50;99.90
19945;DHT22;10134;50.952;6.930;2022-12-18T17:02:44;-0.50;99.90
19945;DHT22;10134;50.952;6.930;2022-12-18T17:05:13;-0.50;99.90
19945;DHT22;10134;50.952;6.930;2022-12-18T17:07:40;-0.50;99.90
19945;DHT22;10134;50.952;6.930;2022-12-18T17:10:08;-0.50;99.90
19945;DHT22;10134;50.952;6.930;2022-12-18T17:12:36;-0.50;99.90
19945;DHT22;10134;50.952;6.930;2022-12-18T17:15:03;-0.50;99.90
19945;DHT22;10134;50.952;6.930;2022-12-18T17:17:31;-0.50;99.90
19945;DHT22;10134;50.952;6.930;2022-12-18T17:19:58;-0.50;99.90
19945;DHT22;10134;50.952;6.930;2022-12-18T17:22:25;-0.50;99.90
19945;DHT22;10134;50.952;6.930;2022-12-18T17:24:54;-0.50;99.90
19945;DHT22;10134;50.952;6.930;2022-12-18T17:27:21;-0.50;99.90
19945;DHT22;10134;50.952;6.930;2022-12-18T17:29:48;-0.40;99.90
19945;DHT22;10134;50.952;6.930;2022-12-18T17:32:16;-0.40;99.90
19945;DHT22;10134;50.952;6.930;2022-12-18T17:34:44;-0.40;99.90
19945;DHT22;10134;50.952;6.930;2022-12-18T17:37:12;-0.40;99.90
19945;DHT22;10134;50.952;6.930;2022-12-18T17:39:39;-0.40;99.90
19945;DHT22;10134;50.952;6.930;2022-12-18T17:42:07;-0.40;99.90
19945;DHT22;10134;50.952;6.930;2022-12-18T17:44:42;-0.40;99.90